sensor_id;sensor_type;location;lat;lon;timestamp;temperature;humidity
49717;DHT22;35609;53.166;7.610;2023-02-24T00:01:25;3.30;99.90
49717;DHT22;35609;53.166;7.610;2023-02-24T00:03:56;3.30;99.90
49717;DHT22;35609;53.166;7.610;2023-02-24T00:06:23;3.30;99.90
49717;DHT22;35609;53.166;7.610;2023-02-24T00:08:49;3.30;99.90
49717;DHT22;35609;53.166;7.610;2023-02-24T00:11:16;3.30;99.90
49717;DHT22;35609;53.166;7.610;2023-02-24T00:13:44;3.30;99.90
49717;DHT22;35609;53.166;7.610;2023-02-24T00:16:15;3.20;99.90
49717;DHT22;35609;53.166;7.610;2023-02-24T00:18:43;3.20;99.90
49717;DHT22;35609;53.166;7.610;2023-02-24T00:21:12;3.20;99.90
49717;DHT22;35609;53.166;7.610;2023-02-24T00:23:40;3.20;99.90
49717;DHT22;35609;53.166;7.610;2023-02-24T00:26:08;3.20;99.90
49717;DHT22;35609;53.166;7.610;2023-02-24T00:28:35;3.20;99.90
49717;DHT22;35609;53.166;7.610;2023-02-24T00:31:02;3.20;99.90
49717;DHT22;35609;53.166;7.610;2023-02-24T00:33:28;3.20;99.90
49717;DHT22;35609;53.166;7.610;2023-02-24T00:36:06;3.20;99.90
49717;DHT22;35609;53.166;7.610;2023-02-24T00:38:33;3.20;99.90
49717;DHT22;35609;53.166;7.610;2023-02-24T00:41:32;3.10;99.90
49717;DHT22;35609;53.166;7.610;2023-02-24T00:44:00;3.00;99.90
49717;DHT22;35609;53.166;7.610;2023-02-24T00:46:39;3.00;99.90
49717;DHT22;35609;53.166;7.610;2023-02-24T00:49:07;2.90;99.90
49717;DHT22;35609;53.166;7.610;2023-02-24T00:51:42;2.90;99.90
49717;DHT22;35609;53.166;7.610;2023-02-24T00:54:08;2.90;99.90
49717;DHT22;35609;53.166;7.610;2023-02-24T00:56:38;2.90;99.90
49717;DHT22;35609;53.166;7.610;2023-02-24T00:59:04;2.80;99.90
49717;DHT22;35609;53.166;7.610;2023-02-24T01:01:31;2.70;99.90
49717;DHT22;35609;53.166;7.610;2023-02-24T01:03:58;2.70;99.90
49717;DHT22;35609;53.166;7.610;2023-02-24T01:06:28;2.60;99.90
49717;DHT22;35609;53.166;7.610;2023-02-24T01:08:55;2.50;99.90
49717;DHT22;35609;53.166;7.610;2023-02-24T01:11:27;2.50;99.90
49717;DHT22;35609;53.166;7.610;2023-02-24T01:14:14;2.40;99.90
49717;DHT22;35609;53.166;7.610;2023-02-24T01:16:41;2.30;99.90
49717;DHT22;35609;53.166;7.610;2023-02-24T01:19:09;2.30;99.90
49717;DHT22;35609;53.166;7.610;2023-02-24T01:21:35;2.30;99.90
49717;DHT22;35609;53.166;7.610;2023-02-24T01:24:01;2.20;99.90
49717;DHT22;35609;53.166;7.610;2023-02-24T01:26:26;2.10;99.90
49717;DHT22;35609;53.166;7.610;2023-02-24T01:28:53;2.10;99.90
49717;DHT22;35609;53.166;7.610;2023-02-24T01:31:20;2.10;99.90
49717;DHT22;35609;53.166;7.610;2023-02-24T01:33:50;2.10;99.90
49717;DHT22;35609;53.166;7.610;2023-02-24T01:36:22;2.00;99.90
49717;DHT22;35609;53.166;7.610;2023-02-24T01:38:48;2.00;99.90
49717;DHT22;35609;53.166;7.610;2023-02-24T01:41:17;1.90;99.90
49717;DHT22;35609;53.166;7.610;2023-02-24T01:44:05;1.90;99.90
49717;DHT22;35609;53.166;7.610;2023-02-24T01:46:37;1.90;99.90
49717;DHT22;35609;53.166;7.610;2023-02-24T01:49:14;1.90;99.90
49717;DHT22;35609;53.166;7.610;2023-02-24T01:51:52;1.90;99.90
49717;DHT22;35609;53.166;7.610;2023-02-24T01:54:23;1.80;99.90
49717;DHT22;35609;53.166;7.610;2023-02-24T01:56:51;1.80;99.90
49717;DHT22;35609;53.166;7.610;2023-02-24T01:59:19;1.70;99.90
49717;DHT22;35609;53.166;7.610;2023-02-24T02:01:46;1.80;99.90
49717;DHT22;35609;53.166;7.610;2023-02-24T02:04:24;1.70;99.90
49717;DHT22;35609;53.166;7.610;2023-02-24T02:06:52;1.80;99.90
49717;DHT22;35609;53.166;7.610;2023-02-24T02:09:19;1.80;99.90
49717;DHT22;35609;53.166;7.610;2023-02-24T02:11:45;1.80;99.90
49717;DHT22;35609;53.166;7.610;2023-02-24T02:14:19;1.80;99.90
49717;DHT22;35609;53.166;7.610;2023-02-24T02:25:43;1.90;99.90
49717;DHT22;35609;53.166;7.610;2023-02-24T02:37:07;2.10;99.90
49717;DHT22;35609;53.166;7.610;2023-02-24T02:39:54;2.00;99.90
49717;DHT22;35609;53.166;7.610;2023-02-24T02:42:41;2.00;99.90
49717;DHT22;35609;53.166;7.610;2023-02-24T02:45:23;2.20;99.90
49717;DHT22;35609;53.166;7.610;2023-02-24T02:48:16;2.00;99.90
49717;DHT22;35609;53.166;7.610;2023-02-24T02:50:48;2.10;99.90
49717;DHT22;35609;53.166;7.610;2023-02-24T02:53:37;2.20;99.90
49717;DHT22;35609;53.166;7.610;2023-02-24T02:56:31;2.10;99.90
49717;DHT22;35609;53.166;7.610;2023-02-24T02:58:59;2.10;99.90
49717;DHT22;35609;53.166;7.610;2023-02-24T03:01:36;2.30;99.90
49717;DHT22;35609;53.166;7.610;2023-02-24T03:04:06;2.30;99.90
49717;DHT22;35609;53.166;7.610;2023-02-24T03:06:49;2.10;99.90
49717;DHT22;35609;53.166;7.610;2023-02-24T03:09:22;2.20;99.90
49717;DHT22;35609;53.166;7.610;2023-02-24T03:11:51;2.40;99.90
49717;DHT22;35609;53.166;7.610;2023-02-24T03:14:22;2.30;99.90
49717;DHT22;35609;53.166;7.610;2023-02-24T03:16:49;2.40;99.90
49717;DHT22;35609;53.166;7.610;2023-02-24T03:19:20;2.20;99.90
49717;DHT22;35609;53.166;7.610;2023-02-24T03:21:57;2.40;99.90
49717;DHT22;35609;53.166;7.610;2023-02-24T03:24:24;2.20;99.90
49717;DHT22;35609;53.166;7.610;2023-02-24T03:27:05;2.30;99.90
49717;DHT22;35609;53.166;7.610;2023-02-24T03:29:37;2.30;99.90
49717;DHT22;35609;53.166;7.610;2023-02-24T03:32:15;2.20;99.90
49717;DHT22;35609;53.166;7.610;2023-02-24T03:34:54;2.30;99.90
49717;DHT22;35609;53.166;7.610;2023-02-24T03:37:22;2.30;99.90
49717;DHT22;35609;53.166;7.610;2023-02-24T03:39:50;2.20;99.90
49717;DHT22;35609;53.166;7.610;2023-02-24T03:42:18;2.40;99.90
49717;DHT22;35609;53.166;7.610;2023-02-24T03:44:45;2.20;99.90
49717;DHT22;35609;53.166;7.610;2023-02-24T03:47:12;2.20;99.90
49717;DHT22;35609;53.166;7.610;2023-02-24T03:49:39;2.30;99.90
49717;DHT22;35609;53.166;7.610;2023-02-24T04:00:45;2.30;99.90
49717;DHT22;35609;53.166;7.610;2023-02-24T04:11:56;2.40;99.90
49717;DHT22;35609;53.166;7.610;2023-02-24T04:14:30;2.30;99.90
49717;DHT22;35609;53.166;7.610;2023-02-24T04:17:01;2.40;99.90
49717;DHT22;35609;53.166;7.610;2023-02-24T04:19:31;2.40;99.90
49717;DHT22;35609;53.166;7.610;2023-02-24T04:21:58;2.50;99.90
49717;DHT22;35609;53.166;7.610;2023-02-24T04:24:28;2.40;99.90
49717;DHT22;35609;53.166;7.610;2023-02-24T04:26:57;2.40;99.90
49717;DHT22;35609;53.166;7.610;2023-02-24T04:29:27;2.30;99.90
49717;DHT22;35609;53.166;7.610;2023-02-24T04:32:07;2.30;99.90
49717;DHT22;35609;53.166;7.610;2023-02-24T04:34:33;2.50;99.90
49717;DHT22;35609;53.166;7.610;2023-02-24T04:36:59;2.60;99.90
49717;DHT22;35609;53.166;7.610;2023-02-24T04:39:27;2.30;99.90
49717;DHT22;35609;53.166;7.610;2023-02-24T04:41:53;2.50;99.90
49717;DHT22;35609;53.166;7.610;2023-02-24T04:44:20;2.40;99.90
49717;DHT22;35609;53.166;7.610;2023-02-24T04:46:47;2.40;99.90
49717;DHT22;35609;53.166;7.610;2023-02-24T04:49:17;2.60;99.90
49717;DHT22;35609;53.166;7.610;2023-02-24T04:51:44;2.50;99.90
49717;DHT22;35609;53.166;7.610;2023-02-24T04:54:12;2.70;99.90
49717;DHT22;35609;53.166;7.610;2023-02-24T04:56:45;2.70;99.90
49717;DHT22;35609;53.166;7.610;2023-02-24T04:59:13;2.50;99.90
49717;DHT22;35609;53.166;7.610;2023-02-24T05:01:40;2.50;99.90
49717;DHT22;35609;53.166;7.610;2023-02-24T05:04:08;2.50;99.90
49717;DHT22;35609;53.166;7.610;2023-02-24T05:06:34;2.80;99.90
49717;DHT22;35609;53.166;7.610;2023-02-24T05:09:00;2.50;99.90
49717;DHT22;35609;53.166;7.610;2023-02-24T05:11:26;2.60;99.90
49717;DHT22;35609;53.166;7.610;2023-02-24T05:13:59;2.60;99.90
49717;DHT22;35609;53.166;7.610;2023-02-24T05:16:25;2.70;99.90
49717;DHT22;35609;53.166;7.610;2023-02-24T05:18:53;2.80;99.90
49717;DHT22;35609;53.166;7.610;2023-02-24T05:21:39;2.70;99.90
49717;DHT22;35609;53.166;7.610;2023-02-24T05:24:06;2.70;99.90
49717;DHT22;35609;53.166;7.610;2023-02-24T05:26:34;2.70;99.90
49717;DHT22;35609;53.166;7.610;2023-02-24T05:29:01;2.80;99.90
49717;DHT22;35609;53.166;7.610;2023-02-24T05:31:28;2.70;99.90
49717;DHT22;35609;53.166;7.610;2023-02-24T05:34:06;2.80;99.90
49717;DHT22;35609;53.166;7.610;2023-02-24T05:36:39;2.80;99.90
49717;DHT22;35609;53.166;7.610;2023-02-24T05:39:05;2.90;99.90
49717;DHT22;35609;53.166;7.610;2023-02-24T05:41:37;2.80;99.90
49717;DHT22;35609;53.166;7.610;2023-02-24T05:44:05;2.90;99.90
49717;DHT22;35609;53.166;7.610;2023-02-24T05:46:37;2.80;99.90
49717;DHT22;35609;53.166;7.610;2023-02-24T05:49:06;3.00;99.90
49717;DHT22;35609;53.166;7.610;2023-02-24T05:51:36;2.90;99.90
49717;DHT22;35609;53.166;7.610;2023-02-24T05:54:09;2.90;99.90
49717;DHT22;35609;53.166;7.610;2023-02-24T05:56:37;3.00;99.90
49717;DHT22;35609;53.166;7.610;2023-02-24T05:59:06;3.00;99.90
49717;DHT22;35609;53.166;7.610;2023-02-24T06:01:38;2.90;99.90
49717;DHT22;35609;53.166;7.610;2023-02-24T06:04:07;3.10;99.90
49717;DHT22;35609;53.166;7.610;2023-02-24T06:06:38;3.10;99.90
49717;DHT22;35609;53.166;7.610;2023-02-24T06:09:10;3.10;99.90
49717;DHT22;35609;53.166;7.610;2023-02-24T06:11:41;3.00;99.90
49717;DHT22;35609;53.166;7.610;2023-02-24T06:14:09;2.90;99.90
49717;DHT22;35609;53.166;7.610;2023-02-24T06:16:40;3.10;99.90
49717;DHT22;35609;53.166;7.610;2023-02-24T06:19:09;2.80;99.90
49717;DHT22;35609;53.166;7.610;2023-02-24T06:21:37;3.00;99.90
49717;DHT22;35609;53.166;7.610;2023-02-24T06:24:08;3.00;99.90
49717;DHT22;35609;53.166;7.610;2023-02-24T06:26:34;3.00;99.90
49717;DHT22;35609;53.166;7.610;2023-02-24T06:29:01;3.10;99.90
49717;DHT22;35609;53.166;7.610;2023-02-24T06:31:28;3.00;99.90
49717;DHT22;35609;53.166;7.610;2023-02-24T06:33:54;2.80;99.90
49717;DHT22;35609;53.166;7.610;2023-02-24T06:36:21;3.00;99.90
49717;DHT22;35609;53.166;7.610;2023-02-24T06:38:47;2.90;99.90
49717;DHT22;35609;53.166;7.610;2023-02-24T06:41:14;2.90;99.90
49717;DHT22;35609;53.166;7.610;2023-02-24T06:43:42;3.00;99.90
49717;DHT22;35609;53.166;7.610;2023-02-24T06:46:13;2.70;99.90
49717;DHT22;35609;53.166;7.610;2023-02-24T06:48:40;2.90;99.90
49717;DHT22;35609;53.166;7.610;2023-02-24T06:51:11;2.80;99.90
49717;DHT22;35609;53.166;7.610;2023-02-24T06:53:40;2.60;99.90
49717;DHT22;35609;53.166;7.610;2023-02-24T06:56:13;2.70;99.90
49717;DHT22;35609;53.166;7.610;2023-02-24T06:58:44;2.80;99.90
49717;DHT22;35609;53.166;7.610;2023-02-24T07:01:14;2.80;99.90
49717;DHT22;35609;53.166;7.610;2023-02-24T07:03:41;3.00;99.90
49717;DHT22;35609;53.166;7.610;2023-02-24T07:06:12;2.70;99.90
49717;DHT22;35609;53.166;7.610;2023-02-24T07:08:52;2.70;99.90
49717;DHT22;35609;53.166;7.610;2023-02-24T07:11:19;2.60;99.90
49717;DHT22;35609;53.166;7.610;2023-02-24T07:13:46;3.00;99.90
49717;DHT22;35609;53.166;7.610;2023-02-24T07:16:16;2.60;99.90
49717;DHT22;35609;53.166;7.610;2023-02-24T07:18:44;2.80;99.90
49717;DHT22;35609;53.166;7.610;2023-02-24T07:21:13;2.70;99.90
49717;DHT22;35609;53.166;7.610;2023-02-24T07:23:42;2.60;99.90
49717;DHT22;35609;53.166;7.610;2023-02-24T07:26:11;2.80;99.90
49717;DHT22;35609;53.166;7.610;2023-02-24T07:28:41;2.70;99.90
49717;DHT22;35609;53.166;7.610;2023-02-24T07:31:12;2.90;99.90
49717;DHT22;35609;53.166;7.610;2023-02-24T07:33:38;2.50;99.90
49717;DHT22;35609;53.166;7.610;2023-02-24T07:36:05;2.90;99.90
49717;DHT22;35609;53.166;7.610;2023-02-24T07:38:37;2.50;99.90
49717;DHT22;35609;53.166;7.610;2023-02-24T07:41:05;2.70;99.90
49717;DHT22;35609;53.166;7.610;2023-02-24T07:43:34;2.60;99.90
49717;DHT22;35609;53.166;7.610;2023-02-24T07:46:11;2.80;99.90
49717;DHT22;35609;53.166;7.610;2023-02-24T07:48:38;2.50;99.90
49717;DHT22;35609;53.166;7.610;2023-02-24T07:51:10;2.90;99.90
49717;DHT22;35609;53.166;7.610;2023-02-24T07:53:37;2.50;99.90
49717;DHT22;35609;53.166;7.610;2023-02-24T07:56:11;2.90;99.90
49717;DHT22;35609;53.166;7.610;2023-02-24T07:58:46;2.60;99.90
49717;DHT22;35609;53.166;7.610;2023-02-24T08:01:17;2.80;99.90
49717;DHT22;35609;53.166;7.610;2023-02-24T08:03:49;2.60;99.90
49717;DHT22;35609;53.166;7.610;2023-02-24T08:06:20;2.80;99.90
49717;DHT22;35609;53.166;7.610;2023-02-24T08:08:54;2.90;99.90
49717;DHT22;35609;53.166;7.610;2023-02-24T08:11:30;2.60;99.90
49717;DHT22;35609;53.166;7.610;2023-02-24T08:14:06;2.70;99.90
49717;DHT22;35609;53.166;7.610;2023-02-24T08:16:44;2.50;99.90
49717;DHT22;35609;53.166;7.610;2023-02-24T08:19:13;2.90;99.90
49717;DHT22;35609;53.166;7.610;2023-02-24T08:21:49;2.50;99.90
49717;DHT22;35609;53.166;7.610;2023-02-24T08:24:20;2.50;99.90
49717;DHT22;35609;53.166;7.610;2023-02-24T08:26:50;2.70;99.90
49717;DHT22;35609;53.166;7.610;2023-02-24T08:29:37;2.90;99.90
49717;DHT22;35609;53.166;7.610;2023-02-24T08:32:38;2.90;99.90
49717;DHT22;35609;53.166;7.610;2023-02-24T08:35:09;2.50;99.90
49717;DHT22;35609;53.166;7.610;2023-02-24T08:37:47;2.60;99.90
49717;DHT22;35609;53.166;7.610;2023-02-24T08:40:17;2.50;99.90
49717;DHT22;35609;53.166;7.610;2023-02-24T08:43:11;2.90;99.90
49717;DHT22;35609;53.166;7.610;2023-02-24T08:46:05;2.90;99.90
49717;DHT22;35609;53.166;7.610;2023-02-24T08:48:41;2.90;99.90
49717;DHT22;35609;53.166;7.610;2023-02-24T08:51:19;2.70;99.90
49717;DHT22;35609;53.166;7.610;2023-02-24T08:53:53;2.90;99.90
49717;DHT22;35609;53.166;7.610;2023-02-24T08:56:23;3.00;99.90
49717;DHT22;35609;53.166;7.610;2023-02-24T08:58:57;3.00;99.90
49717;DHT22;35609;53.166;7.610;2023-02-24T09:01:34;3.00;99.90
49717;DHT22;35609;53.166;7.610;2023-02-24T09:04:09;3.00;99.90
49717;DHT22;35609;53.166;7.610;2023-02-24T09:09:09;3.20;99.90
49717;DHT22;35609;53.166;7.610;2023-02-24T09:11:56;3.20;99.90
49717;DHT22;35609;53.166;7.610;2023-02-24T09:14:28;3.30;99.90
49717;DHT22;35609;53.166;7.610;2023-02-24T09:16:57;2.90;99.90
49717;DHT22;35609;53.166;7.610;2023-02-24T09:19:46;3.20;99.90
49717;DHT22;35609;53.166;7.610;2023-02-24T09:22:26;3.20;99.90
49717;DHT22;35609;53.166;7.610;2023-02-24T09:25:07;3.10;99.90
49717;DHT22;35609;53.166;7.610;2023-02-24T09:28:15;3.20;99.90
49717;DHT22;35609;53.166;7.610;2023-02-24T09:30:47;3.50;99.90
49717;DHT22;35609;53.166;7.610;2023-02-24T09:33:21;3.40;99.90
49717;DHT22;35609;53.166;7.610;2023-02-24T09:35:56;3.50;99.90
49717;DHT22;35609;53.166;7.610;2023-02-24T09:41:34;3.70;99.90
49717;DHT22;35609;53.166;7.610;2023-02-24T09:47:21;3.40;99.90
49717;DHT22;35609;53.166;7.610;2023-02-24T09:52:42;3.30;99.90
49717;DHT22;35609;53.166;7.610;2023-02-24T09:55:30;3.70;99.90
49717;DHT22;35609;53.166;7.610;2023-02-24T10:03:32;3.40;99.90
49717;DHT22;35609;53.166;7.610;2023-02-24T10:06:20;3.60;99.90
49717;DHT22;35609;53.166;7.610;2023-02-24T10:08:53;3.60;99.90
49717;DHT22;35609;53.166;7.610;2023-02-24T10:11:21;3.80;99.90
49717;DHT22;35609;53.166;7.610;2023-02-24T10:13:59;4.00;99.90
49717;DHT22;35609;53.166;7.610;2023-02-24T10:16:26;4.10;99.90
49717;DHT22;35609;53.166;7.610;2023-02-24T10:19:26;3.90;99.90
49717;DHT22;35609;53.166;7.610;2023-02-24T10:22:04;4.10;99.90
49717;DHT22;35609;53.166;7.610;2023-02-24T10:24:40;3.80;99.90
49717;DHT22;35609;53.166;7.610;2023-02-24T10:32:55;3.80;99.90
49717;DHT22;35609;53.166;7.610;2023-02-24T10:35:24;4.00;99.90
49717;DHT22;35609;53.166;7.610;2023-02-24T10:37:52;4.30;99.90
49717;DHT22;35609;53.166;7.610;2023-02-24T10:40:18;4.10;99.90
49717;DHT22;35609;53.166;7.610;2023-02-24T10:43:08;4.40;99.90
49717;DHT22;35609;53.166;7.610;2023-02-24T10:45:44;4.40;99.90
49717;DHT22;35609;53.166;7.610;2023-02-24T10:48:16;4.40;99.90
49717;DHT22;35609;53.166;7.610;2023-02-24T10:50:53;4.80;99.90
49717;DHT22;35609;53.166;7.610;2023-02-24T10:53:23;4.80;99.90
49717;DHT22;35609;53.166;7.610;2023-02-24T10:56:04;4.50;99.90
49717;DHT22;35609;53.166;7.610;2023-02-24T10:59:11;4.70;99.90
49717;DHT22;35609;53.166;7.610;2023-02-24T11:02:02;5.00;99.90
49717;DHT22;35609;53.166;7.610;2023-02-24T11:04:37;5.10;99.90
49717;DHT22;35609;53.166;7.610;2023-02-24T11:07:30;5.00;99.90
49717;DHT22;35609;53.166;7.610;2023-02-24T11:10:22;5.20;99.90
49717;DHT22;35609;53.166;7.610;2023-02-24T11:12:53;5.50;99.90
49717;DHT22;35609;53.166;7.610;2023-02-24T11:15:50;5.80;99.90
49717;DHT22;35609;53.166;7.610;2023-02-24T11:18:35;6.30;99.90
49717;DHT22;35609;53.166;7.610;2023-02-24T11:21:09;6.30;99.90
49717;DHT22;35609;53.166;7.610;2023-02-24T11:23:48;6.30;99.90
49717;DHT22;35609;53.166;7.610;2023-02-24T11:26:34;6.20;99.90
49717;DHT22;35609;53.166;7.610;2023-02-24T11:32:02;6.30;99.90
49717;DHT22;35609;53.166;7.610;2023-02-24T11:34:57;6.40;99.90
49717;DHT22;35609;53.166;7.610;2023-02-24T11:37:37;6.50;99.90
49717;DHT22;35609;53.166;7.610;2023-02-24T11:40:24;7.00;99.90
49717;DHT22;35609;53.166;7.610;2023-02-24T11:43:12;7.60;99.90
49717;DHT22;35609;53.166;7.610;2023-02-24T11:46:08;8.00;99.90
49717;DHT22;35609;53.166;7.610;2023-02-24T11:48:55;7.80;99.90
49717;DHT22;35609;53.166;7.610;2023-02-24T11:51:27;6.80;99.90
49717;DHT22;35609;53.166;7.610;2023-02-24T11:54:04;5.40;99.90
49717;DHT22;35609;53.166;7.610;2023-02-24T11:56:35;5.10;99.90
49717;DHT22;35609;53.166;7.610;2023-02-24T12:01:56;5.10;99.90
49717;DHT22;35609;53.166;7.610;2023-02-24T12:07:06;5.50;99.90
49717;DHT22;35609;53.166;7.610;2023-02-24T12:10:04;5.60;99.90
49717;DHT22;35609;53.166;7.610;2023-02-24T12:15:23;6.60;99.90
49717;DHT22;35609;53.166;7.610;2023-02-24T12:20:48;6.70;99.90
49717;DHT22;35609;53.166;7.610;2023-02-24T12:23:30;7.00;99.90
49717;DHT22;35609;53.166;7.610;2023-02-24T12:31:40;6.90;99.90
49717;DHT22;35609;53.166;7.610;2023-02-24T12:34:25;6.70;99.90
49717;DHT22;35609;53.166;7.610;2023-02-24T12:40:14;6.50;99.90
49717;DHT22;35609;53.166;7.610;2023-02-24T12:42:57;6.70;99.90
49717;DHT22;35609;53.166;7.610;2023-02-24T12:48:37;7.40;99.90
49717;DHT22;35609;53.166;7.610;2023-02-24T12:51:31;7.60;99.90
49717;DHT22;35609;53.166;7.610;2023-02-24T12:54:11;7.60;99.90
49717;DHT22;35609;53.166;7.610;2023-02-24T12:56:45;7.30;99.90
49717;DHT22;35609;53.166;7.610;2023-02-24T12:59:17;7.10;99.90
49717;DHT22;35609;53.166;7.610;2023-02-24T13:01:58;7.00;99.90
49717;DHT22;35609;53.166;7.610;2023-02-24T13:04:36;7.00;99.90
49717;DHT22;35609;53.166;7.610;2023-02-24T13:07:30;6.90;99.90
49717;DHT22;35609;53.166;7.610;2023-02-24T13:12:50;6.90;99.90
49717;DHT22;35609;53.166;7.610;2023-02-24T13:15:23;7.00;99.90
49717;DHT22;35609;53.166;7.610;2023-02-24T13:17:51;7.30;99.90
49717;DHT22;35609;53.166;7.610;2023-02-24T13:20:32;7.30;99.90
49717;DHT22;35609;53.166;7.610;2023-02-24T13:22:59;7.30;99.90
49717;DHT22;35609;53.166;7.610;2023-02-24T13:25:34;7.60;99.90
49717;DHT22;35609;53.166;7.610;2023-02-24T13:28:21;7.60;99.90
49717;DHT22;35609;53.166;7.610;2023-02-24T13:30:57;7.50;99.90
49717;DHT22;35609;53.166;7.610;2023-02-24T13:33:32;7.60;99.90
49717;DHT22;35609;53.166;7.610;2023-02-24T13:36:11;7.80;99.90
49717;DHT22;35609;53.166;7.610;2023-02-24T13:38:40;7.70;99.90
49717;DHT22;35609;53.166;7.610;2023-02-24T13:44:03;7.20;99.90
49717;DHT22;35609;53.166;7.610;2023-02-24T13:50:12;7.60;99.90
49717;DHT22;35609;53.166;7.610;2023-02-24T13:55:34;7.70;99.90
49717;DHT22;35609;53.166;7.610;2023-02-24T14:03:37;7.20;99.90
49717;DHT22;35609;53.166;7.610;2023-02-24T14:06:05;7.20;99.90
49717;DHT22;35609;53.166;7.610;2023-02-24T14:08:43;7.20;99.90
49717;DHT22;35609;53.166;7.610;2023-02-24T14:11:13;7.00;99.90
49717;DHT22;35609;53.166;7.610;2023-02-24T14:13:50;6.80;99.90
49717;DHT22;35609;53.166;7.610;2023-02-24T14:16:22;6.70;99.90
49717;DHT22;35609;53.166;7.610;2023-02-24T14:18:58;6.70;99.90
49717;DHT22;35609;53.166;7.610;2023-02-24T14:21:27;6.70;99.90
49717;DHT22;35609;53.166;7.610;2023-02-24T14:24:10;6.70;99.90
49717;DHT22;35609;53.166;7.610;2023-02-24T14:26:54;6.70;99.90
49717;DHT22;35609;53.166;7.610;2023-02-24T14:29:33;6.70;99.90
49717;DHT22;35609;53.166;7.610;2023-02-24T14:32:00;6.70;99.90
49717;DHT22;35609;53.166;7.610;2023-02-24T14:34:29;6.80;99.90
49717;DHT22;35609;53.166;7.610;2023-02-24T14:37:00;6.90;99.90
49717;DHT22;35609;53.166;7.610;2023-02-24T14:39:29;7.00;99.90
49717;DHT22;35609;53.166;7.610;2023-02-24T14:44:57;6.70;99.90
49717;DHT22;35609;53.166;7.610;2023-02-24T14:47:27;6.70;99.90
49717;DHT22;35609;53.166;7.610;2023-02-24T14:49:58;6.20;99.90
49717;DHT22;35609;53.166;7.610;2023-02-24T14:55:05;6.00;99.90
49717;DHT22;35609;53.166;7.610;2023-02-24T14:57:41;5.70;99.90
49717;DHT22;35609;53.166;7.610;2023-02-24T15:00:37;5.70;99.90
49717;DHT22;35609;53.166;7.610;2023-02-24T15:03:25;6.00;99.90
49717;DHT22;35609;53.166;7.610;2023-02-24T15:05:56;5.90;99.90
49717;DHT22;35609;53.166;7.610;2023-02-24T15:08:41;6.10;99.90
49717;DHT22;35609;53.166;7.610;2023-02-24T15:11:29;6.00;99.90
49717;DHT22;35609;53.166;7.610;2023-02-24T15:13:58;5.90;99.90
49717;DHT22;35609;53.166;7.610;2023-02-24T15:16:43;5.90;99.90
49717;DHT22;35609;53.166;7.610;2023-02-24T15:19:30;5.80;99.90
49717;DHT22;35609;53.166;7.610;2023-02-24T15:21:56;5.40;99.90
49717;DHT22;35609;53.166;7.610;2023-02-24T15:24:33;5.70;99.90
49717;DHT22;35609;53.166;7.610;2023-02-24T15:27:20;5.70;99.90
49717;DHT22;35609;53.166;7.610;2023-02-24T15:30:05;5.60;99.90
49717;DHT22;35609;53.166;7.610;2023-02-24T15:32:34;5.70;99.90
49717;DHT22;35609;53.166;7.610;2023-02-24T15:35:02;5.80;99.90
49717;DHT22;35609;53.166;7.610;2023-02-24T15:37:39;5.80;99.90
49717;DHT22;35609;53.166;7.610;2023-02-24T15:40:18;5.40;99.90
49717;DHT22;35609;53.166;7.610;2023-02-24T15:42:58;5.20;99.90
49717;DHT22;35609;53.166;7.610;2023-02-24T15:45:30;5.10;99.90
49717;DHT22;35609;53.166;7.610;2023-02-24T15:47:59;5.20;99.90
49717;DHT22;35609;53.166;7.610;2023-02-24T15:50:25;4.90;99.90
49717;DHT22;35609;53.166;7.610;2023-02-24T15:52:52;5.20;99.90
49717;DHT22;35609;53.166;7.610;2023-02-24T15:55:27;5.00;99.90
49717;DHT22;35609;53.166;7.610;2023-02-24T15:58:01;5.10;99.90
49717;DHT22;35609;53.166;7.610;2023-02-24T16:00:28;4.90;99.90
49717;DHT22;35609;53.166;7.610;2023-02-24T16:02:56;5.00;99.90
49717;DHT22;35609;53.166;7.610;2023-02-24T16:05:21;5.10;99.90
49717;DHT22;35609;53.166;7.610;2023-02-24T16:07:48;5.20;99.90
49717;DHT22;35609;53.166;7.610;2023-02-24T16:10:20;4.80;99.90
49717;DHT22;35609;53.166;7.610;2023-02-24T16:12:55;4.80;99.90
49717;DHT22;35609;53.166;7.610;2023-02-24T16:15:28;4.80;99.90
49717;DHT22;35609;53.166;7.610;2023-02-24T16:17:54;4.80;99.90
49717;DHT22;35609;53.166;7.610;2023-02-24T16:20:23;5.00;99.90
49717;DHT22;35609;53.166;7.610;2023-02-24T16:22:53;5.00;99.90
49717;DHT22;35609;53.166;7.610;2023-02-24T16:25:19;5.00;99.90
49717;DHT22;35609;53.166;7.610;2023-02-24T16:27:45;5.00;99.90
49717;DHT22;35609;53.166;7.610;2023-02-24T16:30:16;4.90;99.90
49717;DHT22;35609;53.166;7.610;2023-02-24T16:32:42;4.90;99.90
49717;DHT22;35609;53.166;7.610;2023-02-24T16:35:09;4.70;99.90
49717;DHT22;35609;53.166;7.610;2023-02-24T16:37:35;4.70;99.90
49717;DHT22;35609;53.166;7.610;2023-02-24T16:40:01;4.40;99.90
49717;DHT22;35609;53.166;7.610;2023-02-24T16:42:35;4.30;99.90
49717;DHT22;35609;53.166;7.610;2023-02-24T16:45:01;4.30;99.90
49717;DHT22;35609;53.166;7.610;2023-02-24T16:47:27;4.30;99.90
49717;DHT22;35609;53.166;7.610;2023-02-24T16:49:52;4.40;99.90
49717;DHT22;35609;53.166;7.610;2023-02-24T16:52:22;4.30;99.90
49717;DHT22;35609;53.166;7.610;2023-02-24T16:54:49;4.10;99.90
49717;DHT22;35609;53.166;7.610;2023-02-24T16:57:15;4.40;99.90
49717;DHT22;35609;53.166;7.610;2023-02-24T16:59:40;4.20;99.90
49717;DHT22;35609;53.166;7.610;2023-02-24T17:02:12;4.50;99.90
49717;DHT22;35609;53.166;7.610;2023-02-24T17:04:42;4.50;99.90
49717;DHT22;35609;53.166;7.610;2023-02-24T17:07:09;4.50;99.90
49717;DHT22;35609;53.166;7.610;2023-02-24T17:09:35;4.60;99.90
49717;DHT22;35609;53.166;7.610;2023-02-24T17:12:01;4.30;99.90
49717;DHT22;35609;53.166;7.610;2023-02-24T17:14:26;4.30;99.90
49717;DHT22;35609;53.166;7.610;2023-02-24T17:16:52;4.50;99.90
49717;DHT22;35609;53.166;7.610;2023-02-24T17:19:17;4.50;99.90
49717;DHT22;35609;53.166;7.610;2023-02-24T17:21:44;4.50;99.90
49717;DHT22;35609;53.166;7.610;2023-02-24T17:24:14;4.60;99.90
49717;DHT22;35609;53.166;7.610;2023-02-24T17:26:40;4.60;99.90
49717;DHT22;35609;53.166;7.610;2023-02-24T17:29:06;4.50;99.90
49717;DHT22;35609;53.166;7.610;2023-02-24T17:31:32;4.40;99.90
49717;DHT22;35609;53.166;7.610;2023-02-24T17:33:59;4.50;99.90
49717;DHT22;35609;53.166;7.610;2023-02-24T17:36:25;4.50;99.90
49717;DHT22;35609;53.166;7.610;2023-02-24T17:38:50;4.30;99.90
49717;DHT22;35609;53.166;7.610;2023-02-24T17:41:16;4.40;99.90
49717;DHT22;35609;53.166;7.610;2023-02-24T17:43:42;4.50;99.90
49717;DHT22;35609;53.166;7.610;2023-02-24T17:46:07;4.40;99.90
49717;DHT22;35609;53.166;7.610;2023-02-24T17:48:33;4.50;99.90
49717;DHT22;35609;53.166;7.610;2023-02-24T17:50:59;4.60;99.90
49717;DHT22;35609;53.166;7.610;2023-02-24T17:53:24;4.60;99.90
49717;DHT22;35609;53.166;7.610;2023-02-24T17:56:00;4.60;99.90
49717;DHT22;35609;53.166;7.610;2023-02-24T17:58:26;4.50;99.90
49717;DHT22;35609;53.166;7.610;2023-02-24T18:00:52;4.50;99.90
49717;DHT22;35609;53.166;7.610;2023-02-24T18:03:18;4.40;99.90
49717;DHT22;35609;53.166;7.610;2023-02-24T18:05:43;4.40;99.90
49717;DHT22;35609;53.166;7.610;2023-02-24T18:08:09;4.30;99.90